Time;durP1;ratioP1;P1;durP2;ratioP2;P2;SDS_P1;SDS_P2;PMS_P1;PMS_P2;Temp;Humidity;BMP_temperature;BMP_pressure;BME280_temperature;BME280_humidity;BME280_pressure;Samples;Min_cycle;Max_cycle;Signal;HPM_P1;HPM_P2
2022/01/26 00:06:42;;;;;;;40.63;16.73;;;3.50;79.20;;;;;;5062961;28;19954;-92
2022/01/26 00:09:09;;;;;;;42.70;18.87;;;3.50;78.90;;;;;;5044298;28;20021;-92
2022/01/26 00:11:36;;;;;;;39.57;17.07;;;3.50;79.00;;;;;;5043559;28;20025;-93
2022/01/26 00:14:10;;;;;;;46.60;19.53;;;3.50;79.10;;;;;;5042812;28;20031;-92
2022/01/26 00:16:39;;;;;;;38.13;16.27;;;3.40;79.10;;;;;;5043337;28;20498;-92
2022/01/26 00:19:07;;;;;;;51.43;20.67;;;3.50;79.10;;;;;;5043052;28;20025;-93
2022/01/26 00:21:47;;;;;;;48.77;19.07;;;3.50;79.10;;;;;;5044051;28;20505;-92
2022/01/26 00:29:17;;;;;;;33.50;13.80;;;3.50;79.10;;;;;;5061373;28;20017;-93
2022/01/26 00:40:15;;;;;;;38.10;16.40;;;3.50;79.10;;;;;;5060330;28;20083;-92
2022/01/26 00:42:43;;;;;;;33.00;14.50;;;3.60;79.10;;;;;;5041892;28;20039;-93
2022/01/26 00:45:09;;;;;;;45.30;17.80;;;3.50;79.10;;;;;;5043001;28;20013;-92
2022/01/26 00:47:36;;;;;;;45.77;18.23;;;3.50;79.10;;;;;;5043065;28;20017;-93
2022/01/26 00:50:06;;;;;;;34.00;13.17;;;3.50;79.10;;;;;;5039739;28;20027;-92
2022/01/26 00:52:40;;;;;;;34.13;15.87;;;3.50;79.20;;;;;;5042031;28;20025;-90
2022/01/26 00:55:09;;;;;;;40.57;14.83;;;3.60;79.10;;;;;;5042359;28;20020;-92
2022/01/26 00:57:35;;;;;;;41.03;16.00;;;3.60;79.10;;;;;;5042290;28;20116;-92
2022/01/26 01:00:02;;;;;;;36.90;17.00;;;3.50;79.10;;;;;;5041720;28;21112;-91
2022/01/26 01:02:30;;;;;;;41.73;17.40;;;3.50;79.10;;;;;;5059949;28;20036;-91
2022/01/26 01:04:58;;;;;;;45.87;16.97;;;3.60;79.10;;;;;;5046504;28;20522;-93
2022/01/26 01:07:24;;;;;;;46.53;19.20;;;3.60;79.10;;;;;;5044733;28;20092;-93
2022/01/26 01:09:49;;;;;;;;;;;3.60;79.00;;;;;;5050948;28;20486;-91
2022/01/26 01:12:15;;;;;;;44.87;17.80;;;3.60;79.10;;;;;;5049656;28;19913;-92
2022/01/26 01:14:42;;;;;;;;;;;3.60;78.70;;;;;;5052497;28;20048;-92
2022/01/26 01:17:12;;;;;;;44.60;17.15;;;3.70;78.80;;;;;;5052491;28;19908;-91
2022/01/26 01:19:52;;;;;;;40.00;16.37;;;3.70;78.60;;;;;;5057506;28;20029;-93
2022/01/26 01:22:39;;;;;;;44.27;18.17;;;3.60;78.60;;;;;;5058643;28;20009;-91
2022/01/26 01:30:40;;;;;;;39.23;16.23;;;3.60;78.90;;;;;;5049892;28;20095;-93
2022/01/26 01:33:10;;;;;;;30.57;12.03;;;3.60;78.90;;;;;;5044614;28;20029;-93
2022/01/26 01:35:39;;;;;;;42.90;18.03;;;3.60;79.00;;;;;;5062461;28;20037;-93
2022/01/26 01:38:10;;;;;;;30.97;13.03;;;3.50;79.00;;;;;;5043826;28;20009;-93
2022/01/26 01:40:40;;;;;;;37.00;15.83;;;3.60;79.00;;;;;;5044258;28;20111;-93
2022/01/26 01:43:06;;;;;;;38.80;15.23;;;3.60;79.10;;;;;;5043956;28;20034;-92
2022/01/26 01:45:33;;;;;;;44.80;17.53;;;3.60;79.00;;;;;;5044361;28;20029;-94
2022/01/26 01:47:59;;;;;;;42.37;17.40;;;3.60;79.00;;;;;;5043326;28;20527;-94
2022/01/26 01:50:25;;;;;;;;;;;3.60;79.10;;;;;;5043552;28;20482;-92
2022/01/26 01:52:51;;;;;;;29.40;12.57;;;3.60;79.10;;;;;;5043961;28;19915;-92
2022/01/26 01:55:16;;;;;;;;;;;3.60;78.90;;;;;;5043253;28;20025;-93
2022/01/26 01:57:42;;;;;;;33.50;13.33;;;3.60;79.00;;;;;;5042206;28;19908;-93
2022/01/26 02:00:08;;;;;;;44.83;17.95;;;3.60;78.80;;;;;;5042894;28;20036;-92
2022/01/26 02:02:34;;;;;;;38.00;15.33;;;3.60;78.90;;;;;;5040672;28;20104;-92
2022/01/26 02:04:59;;;;;;;31.95;14.55;;;3.60;79.00;;;;;;5039850;28;20467;-92
2022/01/26 02:07:25;;;;;;;39.95;17.08;;;3.60;79.10;;;;;;5039749;28;20025;-93
2022/01/26 02:09:50;;;;;;;;;;;3.60;79.10;;;;;;5041831;28;20082;-93
2022/01/26 02:12:20;;;;;;;18.33;6.73;;;3.60;79.20;;;;;;5041496;28;19933;-89
2022/01/26 02:14:51;;;;;;;38.03;16.50;;;3.60;79.00;;;;;;5040866;28;20043;-92
2022/01/26 02:50:25;;;;;;;23.87;10.20;;;3.60;79.10;;;;;;5043378;28;20064;-93
2022/01/26 02:53:05;;;;;;;33.20;13.60;;;3.60;79.10;;;;;;5031903;28;20033;-93
2022/01/26 02:55:43;;;;;;;29.40;12.03;;;3.60;79.00;;;;;;5026336;28;20077;-93
2022/01/26 03:03:38;;;;;;;38.53;16.70;;;3.60;79.10;;;;;;5003875;28;20012;-91
2022/01/26 03:06:12;;;;;;;32.07;12.83;;;3.60;79.00;;;;;;5025995;28;20132;-93
2022/01/26 03:08:43;;;;;;;34.47;14.73;;;3.60;79.10;;;;;;5025622;28;20053;-91
2022/01/26 03:11:13;;;;;;;34.60;14.27;;;3.60;79.00;;;;;;5025705;28;20044;-93
2022/01/26 03:13:54;;;;;;;32.67;14.00;;;3.60;79.10;;;;;;5047632;28;20033;-92
2022/01/26 03:21:26;;;;;;;36.40;14.52;;;3.60;79.00;;;;;;5042300;28;20032;-91
2022/01/26 03:34:34;;;;;;;31.97;13.60;;;3.70;78.90;;;;;;5041259;28;20052;-92
2022/01/26 03:37:05;;;;;;;;;;;3.70;78.80;;;;;;5026376;28;20029;-93
2022/01/26 03:39:40;;;;;;;26.87;11.73;;;3.70;78.90;;;;;;5024924;28;20381;-93
2022/01/26 03:42:07;;;;;;;28.63;12.70;;;3.70;78.70;;;;;;5024531;28;20033;-93
2022/01/26 03:44:33;;;;;;;33.07;14.63;;;3.70;78.80;;;;;;5025039;28;20013;-92
2022/01/26 03:46:59;;;;;;;;;;;3.70;78.90;;;;;;5025300;28;20037;-92
2022/01/26 03:49:25;;;;;;;28.93;11.80;;;3.70;78.90;;;;;;5025574;28;19913;-92
2022/01/26 03:51:51;;;;;;;;;;;3.70;78.70;;;;;;5025984;28;20034;-93
2022/01/26 03:54:17;;;;;;;38.20;13.67;;;3.70;78.80;;;;;;5026151;28;19916;-92
2022/01/26 03:56:44;;;;;;;28.60;12.73;;;3.70;78.60;;;;;;5026415;28;20024;-92
2022/01/26 03:59:09;;;;;;;30.20;12.20;;;3.70;78.80;;;;;;5024212;28;20378;-91
2022/01/26 04:01:35;;;;;;;;;;;3.70;78.90;;;;;;5024025;28;20033;-93
2022/01/26 04:04:02;;;;;;;29.80;11.93;;;3.70;79.00;;;;;;5022614;28;19999;-92
2022/01/26 04:06:30;;;;;;;33.47;14.53;;;3.70;78.80;;;;;;5024606;28;20117;-92
2022/01/26 04:08:56;;;;;;;31.10;13.57;;;3.70;78.90;;;;;;5024972;28;20056;-92
2022/01/26 04:11:36;;;;;;;26.80;12.35;;;3.70;79.00;;;;;;5024465;28;20025;-93
2022/01/26 04:14:06;;;;;;;28.93;12.80;;;3.70;79.00;;;;;;5024002;28;20024;-89
2022/01/26 04:16:33;;;;;;;34.97;14.80;;;3.70;79.00;;;;;;5023643;28;20023;-92
2022/01/26 04:18:59;;;;;;;36.77;16.10;;;3.70;79.00;;;;;;5024473;28;20036;-93
2022/01/26 04:21:52;;;;;;;;;;;3.70;79.10;;;;;;5026230;28;20100;-93
2022/01/26 04:26:59;;;;;;;28.70;12.23;;;3.70;78.90;;;;;;5045245;28;20477;-92
2022/01/26 04:29:28;;;;;;;32.60;15.00;;;3.60;79.00;;;;;;5027155;28;20060;-89
2022/01/26 04:31:54;;;;;;;31.20;13.07;;;3.60;79.10;;;;;;5033885;28;20025;-93
2022/01/26 04:34:20;;;;;;;33.33;14.27;;;3.60;79.20;;;;;;5034753;28;20049;-92
2022/01/26 04:36:53;;;;;;;;;;;3.60;79.20;;;;;;5034256;28;20014;-92
2022/01/26 04:39:27;;;;;;;33.87;14.70;;;3.60;79.20;;;;;;5039657;28;19901;-94
2022/01/26 04:42:01;;;;;;;28.37;10.97;;;3.60;78.90;;;;;;5039760;28;20029;-92
2022/01/26 04:44:33;;;;;;;38.73;15.40;;;3.60;79.10;;;;;;5035913;28;20060;-87
2022/01/26 04:46:59;;;;;;;43.40;14.57;;;3.50;79.10;;;;;;5029151;28;20108;-92
2022/01/26 04:49:25;;;;;;;39.78;16.25;;;3.50;79.10;;;;;;5025898;28;20129;-93
2022/01/26 04:51:50;;;;;;;35.63;14.23;;;3.40;79.20;;;;;;5025085;28;20033;-93
2022/01/26 04:54:16;;;;;;;36.75;13.70;;;3.40;79.10;;;;;;5023675;28;20060;-93
2022/01/26 04:56:41;;;;;;;;;;;3.40;79.20;;;;;;5023682;28;20064;-93
2022/01/26 04:59:07;;;;;;;32.63;12.30;;;3.30;79.20;;;;;;5023455;28;19921;-94
2022/01/26 05:01:33;;;;;;;;;;;3.30;79.00;;;;;;5024284;28;20110;-93
2022/01/26 05:03:58;;;;;;;30.30;12.23;;;3.30;79.20;;;;;;5023678;28;19944;-93
2022/01/26 05:06:26;;;;;;;31.80;14.23;;;3.30;79.00;;;;;;5023835;28;20052;-94
2022/01/26 05:08:52;;;;;;;32.97;13.37;;;3.30;79.20;;;;;;5022539;28;20017;-94
2022/01/26 05:11:28;;;;;;;;;;;3.30;79.30;;;;;;5023599;28;20055;-94
2022/01/26 05:13:55;;;;;;;31.17;12.43;;;3.30;79.30;;;;;;5023437;28;19927;-93
2022/01/26 05:16:21;;;;;;;21.67;10.20;;;3.40;79.10;;;;;;5023186;28;20018;-94
2022/01/26 05:18:47;;;;;;;;;;;3.30;79.10;;;;;;5023147;28;20439;-94
2022/01/26 05:21:12;;;;;;;33.13;12.17;;;3.30;79.20;;;;;;5023184;28;20004;-93
2022/01/26 05:23:38;;;;;;;;;;;3.30;79.10;;;;;;5023815;28;20033;-93
2022/01/26 05:26:03;;;;;;;15.40;8.70;;;3.30;79.20;;;;;;5023212;28;20010;-93
2022/01/26 05:28:29;;;;;;;35.35;13.38;;;3.40;79.10;;;;;;5022477;28;20033;-91
2022/01/26 05:30:54;;;;;;;;;;;3.30;79.30;;;;;;5023305;28;20067;-93
2022/01/26 05:33:23;;;;;;;40.07;19.40;;;3.30;79.50;;;;;;5023482;28;19909;-94
2022/01/26 05:35:50;;;;;;;39.37;16.13;;;3.40;79.30;;;;;;5022415;28;20479;-94
2022/01/26 05:38:15;;;;;;;44.63;19.20;;;3.30;79.50;;;;;;5021758;28;20029;-93
2022/01/26 05:40:41;;;;;;;;;;;3.40;79.60;;;;;;5022161;28;20573;-93
2022/01/26 05:43:06;;;;;;;28.97;11.57;;;3.40;79.60;;;;;;5021115;28;19915;-92
2022/01/26 05:45:35;;;;;;;49.08;20.92;;;3.40;79.50;;;;;;5021381;28;20037;-93
2022/01/26 05:48:03;;;;;;;42.73;17.90;;;3.30;79.50;;;;;;5021855;28;20018;-92
2022/01/26 05:50:31;;;;;;;37.63;15.40;;;3.40;79.60;;;;;;5021521;28;20026;-93
2022/01/26 05:52:57;;;;;;;41.27;14.93;;;3.40;79.60;;;;;;5020672;28;20021;-91
2022/01/26 05:55:22;;;;;;;30.85;14.25;;;3.40;79.60;;;;;;5021853;28;20033;-93
2022/01/26 05:57:48;;;;;;;49.17;18.60;;;3.40;79.60;;;;;;5023033;28;20534;-93
2022/01/26 06:00:14;;;;;;;38.50;15.15;;;3.40;79.60;;;;;;5025014;28;20033;-92
2022/01/26 06:02:40;;;;;;;37.95;15.55;;;3.40;79.60;;;;;;5025087;28;20028;-91
2022/01/26 06:05:06;;;;;;;27.08;12.50;;;3.40;79.50;;;;;;5025323;28;20052;-92
2022/01/26 06:07:31;;;;;;;38.77;16.57;;;3.40;79.50;;;;;;5026659;28;20033;-92
2022/01/26 06:09:57;;;;;;;;;;;3.40;79.50;;;;;;5025846;28;20036;-93
2022/01/26 06:12:22;;;;;;;37.87;15.43;;;3.40;79.60;;;;;;5027585;28;19924;-92
2022/01/26 06:14:48;;;;;;;;;;;3.40;79.40;;;;;;5026460;28;20143;-93
2022/01/26 06:17:14;;;;;;;29.57;12.90;;;3.40;79.50;;;;;;5025935;28;19917;-93
2022/01/26 06:19:39;;;;;;;;;;;3.40;79.40;;;;;;5025653;28;20053;-89
2022/01/26 06:22:05;;;;;;;19.23;6.93;;;3.40;79.50;;;;;;5022711;28;19916;-88
2022/01/26 06:24:30;;;;;;;;;;;3.40;79.40;;;;;;5023161;28;20100;-90
2022/01/26 06:26:56;;;;;;;25.00;10.53;;;3.40;79.50;;;;;;5022802;28;19956;-89
2022/01/26 06:29:21;;;;;;;;;;;3.40;79.40;;;;;;5024489;28;20494;-90
2022/01/26 06:31:47;;;;;;;21.67;8.90;;;3.40;79.50;;;;;;5022676;28;20429;-89
2022/01/26 06:34:13;;;;;;;19.27;10.50;;;3.40;79.40;;;;;;5023932;28;20029;-89
2022/01/26 06:36:43;;;;;;;28.98;13.00;;;3.40;79.50;;;;;;5023386;28;20083;-90
2022/01/26 06:39:11;;;;;;;27.57;12.60;;;3.40;79.60;;;;;;5022081;28;20049;-88
2022/01/26 06:41:37;;;;;;;32.43;13.87;;;3.40;79.60;;;;;;5040544;28;20030;-89
2022/01/26 06:44:15;;;;;;;40.47;16.53;;;3.50;79.60;;;;;;5023260;28;20037;-90
2022/01/26 06:46:55;;;;;;;43.70;15.93;;;3.50;79.70;;;;;;5021752;28;20112;-89
2022/01/26 06:51:50;;;;;;;33.70;13.87;;;3.50;79.70;;;;;;5040670;28;20014;-88
2022/01/26 06:54:16;;;;;;;18.47;8.17;;;3.50;79.70;;;;;;5022760;28;20136;-90
2022/01/26 06:56:42;;;;;;;;;;;3.50;79.70;;;;;;5022817;28;20021;-88
2022/01/26 06:59:07;;;;;;;41.73;15.37;;;3.60;79.70;;;;;;5021205;28;19948;-89
2022/01/26 07:01:33;;;;;;;;;;;3.60;79.40;;;;;;5021990;28;20037;-89
2022/01/26 07:03:58;;;;;;;36.87;15.40;;;3.60;79.50;;;;;;5023039;28;19905;-89
2022/01/26 07:06:24;;;;;;;30.33;13.10;;;3.60;79.30;;;;;;5026292;28;20159;-89
2022/01/26 07:08:50;;;;;;;;;;;3.60;79.50;;;;;;5026543;28;20029;-90
2022/01/26 07:11:15;;;;;;;38.17;14.37;;;3.60;79.50;;;;;;5024973;28;20381;-94
2022/01/26 07:13:42;;;;;;;;;;;3.70;79.40;;;;;;5020328;28;20025;-89
2022/01/26 07:21:35;;;;;;;43.87;17.53;;;3.60;79.50;;;;;;5043842;28;20080;-92
2022/01/26 07:24:01;;;;;;;;;;;3.60;79.60;;;;;;5027754;28;20025;-94
2022/01/26 07:26:29;;;;;;;34.67;14.30;;;3.70;79.70;;;;;;5029454;28;20016;-91
2022/01/26 07:29:05;;;;;;;32.53;14.50;;;3.70;79.50;;;;;;5025730;28;20063;-93
2022/01/26 07:31:33;;;;;;;33.30;15.48;;;3.70;79.50;;;;;;5026411;28;20028;-94
2022/01/26 07:33:59;;;;;;;34.37;14.13;;;3.80;79.50;;;;;;5026588;28;20052;-92
2022/01/26 07:36:25;;;;;;;;;;;3.80;79.50;;;;;;5028333;28;20053;-94
2022/01/26 07:38:53;;;;;;;40.13;16.77;;;3.80;79.50;;;;;;5027893;28;19912;-93
2022/01/26 07:41:19;;;;;;;36.37;16.53;;;3.80;79.30;;;;;;5026056;28;20029;-85
2022/01/26 07:43:44;;;;;;;;;;;3.90;79.30;;;;;;5021143;28;20053;-86
2022/01/26 07:46:11;;;;;;;27.73;12.77;;;3.90;79.40;;;;;;5022434;28;19955;-86
2022/01/26 07:48:36;;;;;;;37.40;15.13;;;3.90;79.20;;;;;;5050396;28;20037;-86
2022/01/26 07:51:02;;;;;;;;;;;3.80;79.20;;;;;;5038007;28;20020;-86
2022/01/26 07:53:28;;;;;;;43.37;18.13;;;3.90;79.40;;;;;;5038110;28;19908;-86
2022/01/26 07:55:56;;;;;;;;;;;3.90;79.10;;;;;;5051240;28;20034;-86
2022/01/26 07:58:22;;;;;;;;;;;3.90;79.30;;;;;;5036464;28;19913;-86
2022/01/26 08:00:48;;;;;;;33.80;13.60;;;3.90;79.20;;;;;;5034277;28;19908;-87
2022/01/26 08:03:14;;;;;;;41.13;16.95;;;4.00;79.00;;;;;;5037318;28;20121;-86
2022/01/26 08:05:41;;;;;;;38.33;15.63;;;4.00;79.10;;;;;;5038036;28;20052;-84
2022/01/26 08:08:06;;;;;;;35.43;13.07;;;4.00;79.20;;;;;;5020551;28;20044;-85
2022/01/26 08:10:34;;;;;;;33.15;14.95;;;4.00;79.20;;;;;;5020362;28;20029;-85
2022/01/26 08:13:00;;;;;;;37.97;15.53;;;4.00;79.20;;;;;;5019170;28;20014;-86
2022/01/26 08:15:26;;;;;;;;;;;4.00;79.20;;;;;;5022587;28;20075;-86
2022/01/26 08:17:52;;;;;;;28.60;12.50;;;4.00;79.20;;;;;;5037493;28;20368;-87
2022/01/26 08:20:17;;;;;;;27.67;11.95;;;4.10;78.90;;;;;;5018831;28;20030;-86
2022/01/26 08:22:43;;;;;;;43.50;17.15;;;4.10;79.00;;;;;;5018587;28;20018;-87
2022/01/26 08:25:10;;;;;;;;;;;4.10;79.00;;;;;;5019645;28;20021;-85
2022/01/26 08:27:43;;;;;;;26.55;11.55;;;4.10;79.10;;;;;;5018585;28;20254;-86
2022/01/26 08:30:12;;;;;;;38.50;13.93;;;4.20;78.80;;;;;;5016604;28;20026;-84
2022/01/26 08:32:39;;;;;;;37.83;15.63;;;4.20;78.80;;;;;;5017619;28;20060;-83
2022/01/26 08:35:05;;;;;;;36.70;15.97;;;4.10;78.80;;;;;;5018013;28;20099;-87
2022/01/26 08:37:30;;;;;;;;;;;4.10;78.80;;;;;;5035539;28;20017;-87
2022/01/26 08:39:56;;;;;;;42.30;17.03;;;4.10;78.90;;;;;;5018049;28;20334;-86
2022/01/26 08:42:21;;;;;;;;;;;4.10;78.70;;;;;;5018437;28;20034;-86
2022/01/26 08:44:47;;;;;;;45.50;16.73;;;4.10;78.80;;;;;;5017896;28;19928;-86
2022/01/26 08:47:13;;;;;;;36.60;14.10;;;4.10;78.60;;;;;;5025869;28;20029;-93
2022/01/26 08:49:38;;;;;;;;;;;4.10;78.70;;;;;;5032216;28;20004;-94
2022/01/26 08:52:04;;;;;;;34.07;13.57;;;4.10;78.80;;;;;;5027019;28;20059;-92
2022/01/26 08:54:30;;;;;;;46.45;20.95;;;4.10;78.70;;;;;;5024777;28;20033;-85
2022/01/26 08:56:56;;;;;;;54.10;19.52;;;4.10;78.80;;;;;;5017617;28;20075;-89
2022/01/26 08:59:23;;;;;;;31.88;13.95;;;4.10;78.80;;;;;;5022519;28;20033;-89
2022/01/26 09:01:49;;;;;;;41.13;17.77;;;4.10;78.90;;;;;;5023212;28;20036;-89
2022/01/26 09:04:15;;;;;;;;;;;4.20;78.90;;;;;;5023458;28;20034;-88
2022/01/26 09:06:59;;;;;;;39.33;16.47;;;4.20;78.90;;;;;;5022625;28;19909;-88
2022/01/26 09:09:41;;;;;;;32.13;12.90;;;4.30;78.60;;;;;;5021896;28;20055;-89
2022/01/26 09:12:13;;;;;;;48.50;19.70;;;4.40;78.60;;;;;;5021424;28;20041;-90
2022/01/26 09:14:39;;;;;;;37.73;14.87;;;4.40;78.40;;;;;;5022753;28;20022;-90
2022/01/26 09:17:06;;;;;;;;;;;4.50;78.50;;;;;;5021445;28;20418;-89
2022/01/26 09:19:32;;;;;;;35.27;14.43;;;4.60;78.50;;;;;;5022762;28;19909;-92
2022/01/26 09:22:16;;;;;;;53.67;20.53;;;4.60;78.20;;;;;;5033320;28;20040;-94
2022/01/26 09:24:47;;;;;;;53.00;20.93;;;4.60;78.20;;;;;;5031524;28;20081;-93
2022/01/26 09:27:16;;;;;;;53.40;21.97;;;4.70;78.20;;;;;;5084264;22;20075;-95
2022/01/26 09:29:46;;;;;;;57.80;22.40;;;4.80;78.20;;;;;;5050871;28;20021;-95
2022/01/26 09:32:41;;;;;;;52.27;20.67;;;4.80;78.10;;;;;;5052909;28;20069;-95
2022/01/26 09:38:38;;;;;;;52.53;20.50;;;4.80;77.90;;;;;;5075559;28;20039;-96
2022/01/26 09:41:10;;;;;;;54.40;21.10;;;4.90;77.70;;;;;;5041503;28;20218;-95
2022/01/26 09:43:39;;;;;;;63.37;25.03;;;4.90;77.60;;;;;;5043382;28;20009;-90
2022/01/26 09:46:05;;;;;;;56.73;21.27;;;4.90;77.70;;;;;;5046756;28;20033;-88
2022/01/26 09:48:33;;;;;;;49.42;19.92;;;5.00;77.70;;;;;;5045860;28;20070;-84
2022/01/26 09:50:59;;;;;;;32.77;13.40;;;5.10;77.60;;;;;;5039982;28;20025;-84
2022/01/26 09:53:30;;;;;;;50.15;21.10;;;5.10;77.50;;;;;;5039484;28;20056;-85
2022/01/26 09:55:56;;;;;;;44.37;20.17;;;5.00;77.40;;;;;;5039111;28;20025;-83
2022/01/26 09:58:21;;;;;;;40.85;16.20;;;5.00;77.40;;;;;;5056806;28;20075;-84
2022/01/26 10:00:55;;;;;;;;;;;5.00;77.20;;;;;;5038739;28;20025;-85
2022/01/26 10:03:27;;;;;;;30.27;12.57;;;4.90;77.20;;;;;;5032850;28;19909;-84
2022/01/26 10:05:53;;;;;;;48.60;20.67;;;4.90;77.00;;;;;;5038928;28;20025;-86
2022/01/26 10:18:56;;;;;;;45.15;18.08;;;4.80;77.20;;;;;;5055763;28;20033;-86
2022/01/26 10:21:25;;;;;;;29.60;13.57;;;4.80;77.40;;;;;;5040111;28;20074;-86
2022/01/26 10:23:52;;;;;;;51.63;20.70;;;4.80;77.30;;;;;;5039955;28;20028;-86
2022/01/26 10:26:19;;;;;;;44.30;16.60;;;4.80;77.40;;;;;;5037665;28;20036;-86
2022/01/26 10:28:53;;;;;;;48.00;20.07;;;4.70;77.40;;;;;;5038735;28;20478;-87
2022/01/26 10:31:21;;;;;;;52.13;20.70;;;4.70;77.50;;;;;;5040577;28;20051;-86
2022/01/26 10:34:14;;;;;;;28.33;12.53;;;4.70;77.50;;;;;;5040179;28;20090;-86
2022/01/26 10:37:09;;;;;;;55.10;21.37;;;4.80;77.50;;;;;;5036126;28;20094;-86
2022/01/26 10:39:38;;;;;;;52.20;19.57;;;4.80;77.40;;;;;;5032272;28;20036;-85
2022/01/26 10:42:11;;;;;;;20.40;8.20;;;4.80;77.30;;;;;;5036007;28;20049;-86
2022/01/26 10:44:49;;;;;;;46.07;19.37;;;4.80;77.30;;;;;;5046834;28;20047;-86
2022/01/26 10:47:33;;;;;;;51.63;20.53;;;4.80;77.20;;;;;;5039710;28;20067;-87
2022/01/26 10:50:29;;;;;;;24.60;10.37;;;4.80;77.40;;;;;;5040367;28;20067;-87
2022/01/26 10:52:56;;;;;;;40.27;17.10;;;4.80;77.30;;;;;;5052064;28;20051;-85
2022/01/26 10:55:23;;;;;;;45.67;17.53;;;4.80;77.30;;;;;;5038374;28;20021;-87
2022/01/26 10:57:48;;;;;;;38.27;14.57;;;4.80;77.40;;;;;;5040422;28;20036;-87
2022/01/26 11:00:15;;;;;;;41.65;17.00;;;4.70;77.50;;;;;;5040851;28;20056;-87
2022/01/26 11:02:41;;;;;;;;;;;4.70;77.50;;;;;;5040206;28;20052;-85
2022/01/26 11:05:08;;;;;;;50.63;20.25;;;4.70;77.60;;;;;;5035088;28;19912;-87
2022/01/26 11:07:40;;;;;;;39.73;16.57;;;4.70;77.40;;;;;;5040883;28;20482;-87
2022/01/26 11:10:08;;;;;;;34.73;14.47;;;4.60;77.50;;;;;;5040710;28;20025;-87
2022/01/26 11:12:38;;;;;;;48.70;19.90;;;4.70;77.60;;;;;;5041674;28;20431;-87
2022/01/26 11:15:09;;;;;;;50.87;18.63;;;4.60;77.60;;;;;;5045687;28;20060;-88
2022/01/26 11:17:38;;;;;;;53.50;21.17;;;4.60;77.80;;;;;;5041674;28;20036;-84
2022/01/26 11:20:18;;;;;;;39.17;16.37;;;4.70;77.70;;;;;;5042291;28;20044;-82
2022/01/26 11:22:54;;;;;;;40.87;17.37;;;4.60;77.80;;;;;;5055258;28;20059;-82
2022/01/26 11:25:22;;;;;;;35.77;14.17;;;4.60;77.70;;;;;;5060090;28;20065;-87
2022/01/26 11:27:49;;;;;;;29.93;11.60;;;4.60;77.70;;;;;;5059004;28;20063;-87
2022/01/26 11:30:18;;;;;;;53.03;19.53;;;4.60;77.70;;;;;;5058519;28;20093;-87
2022/01/26 11:32:58;;;;;;;47.33;17.17;;;4.60;77.90;;;;;;5042143;28;20048;-86
2022/01/26 11:35:32;;;;;;;45.30;18.63;;;4.60;78.00;;;;;;5059116;28;20037;-86
2022/01/26 11:38:05;;;;;;;42.50;18.57;;;4.60;77.90;;;;;;5058871;28;20024;-87
2022/01/26 11:46:25;;;;;;;44.67;18.13;;;4.60;77.90;;;;;;5056040;28;20035;-86
2022/01/26 11:49:05;;;;;;;;;;;4.60;77.80;;;;;;5044441;28;20021;-90
2022/01/26 11:51:57;;;;;;;39.17;15.20;;;4.70;78.00;;;;;;5044257;28;20365;-89
2022/01/26 11:54:25;;;;;;;42.57;17.73;;;4.70;77.70;;;;;;5037747;28;20128;-91
2022/01/26 11:57:08;;;;;;;44.07;17.17;;;4.80;77.70;;;;;;5043106;28;20021;-88
2022/01/26 11:59:38;;;;;;;35.33;15.53;;;4.80;77.70;;;;;;5042474;28;20032;-89
2022/01/26 12:02:19;;;;;;;32.50;13.33;;;4.80;77.70;;;;;;5043308;28;20029;-89
2022/01/26 12:04:55;;;;;;;37.50;15.73;;;4.80;77.70;;;;;;5046845;28;20036;-89
2022/01/26 12:07:23;;;;;;;36.17;14.20;;;4.80;77.70;;;;;;5040137;28;20021;-91
2022/01/26 12:09:49;;;;;;;41.80;18.43;;;4.80;77.70;;;;;;5042693;28;20025;-90
2022/01/26 12:12:24;;;;;;;38.67;16.60;;;4.80;77.70;;;;;;5042672;28;20031;-91
2022/01/26 12:15:01;;;;;;;40.97;17.30;;;4.80;77.70;;;;;;5044844;28;20103;-91
2022/01/26 12:17:39;;;;;;;35.93;15.70;;;4.80;77.70;;;;;;5044130;28;20561;-90
2022/01/26 12:32:12;;;;;;;31.00;12.90;;;4.70;77.70;;;;;;5040189;28;20116;-92
2022/01/26 12:34:36;;;;;;;73.30;26.27;;;4.60;77.70;;;;;;5051383;28;20036;-83
2022/01/26 12:37:11;;;;;;;65.07;23.17;;;4.60;77.90;;;;;;5036131;28;20029;-82
2022/01/26 12:45:17;;;;;;;39.80;15.35;;;4.70;77.90;;;;;;5055119;28;20037;-86
2022/01/26 12:47:43;;;;;;;58.80;21.83;;;4.60;77.90;;;;;;5035982;28;20013;-84
2022/01/26 12:50:09;;;;;;;43.33;19.17;;;4.60;77.90;;;;;;5037780;28;20032;-86
2022/01/26 12:52:35;;;;;;;43.30;19.08;;;4.60;78.00;;;;;;5035396;28;20125;-85
2022/01/26 12:55:02;;;;;;;44.47;21.40;;;4.70;78.00;;;;;;5036537;28;20028;-85
2022/01/26 12:57:28;;;;;;;41.90;20.53;;;4.70;78.00;;;;;;5036297;28;20037;-84
2022/01/26 13:00:04;;;;;;;62.92;25.52;;;4.70;78.00;;;;;;5035860;28;20032;-85
2022/01/26 13:02:30;;;;;;;52.23;22.53;;;4.70;77.90;;;;;;5033358;28;20104;-85
2022/01/26 13:04:59;;;;;;;;;;;4.80;77.90;;;;;;5055174;28;20068;-84
2022/01/26 13:07:25;;;;;;;41.27;19.73;;;4.80;77.90;;;;;;5019958;28;19970;-84
2022/01/26 13:09:51;;;;;;;49.53;21.70;;;4.80;77.60;;;;;;5036517;28;20033;-85
2022/01/26 13:12:27;;;;;;;43.65;19.80;;;4.80;77.60;;;;;;5036149;28;20421;-85
2022/01/26 13:15:11;;;;;;;23.08;11.23;;;4.80;77.70;;;;;;5036564;28;20025;-84
2022/01/26 13:17:45;;;;;;;39.67;18.87;;;4.80;77.70;;;;;;5036535;28;20470;-86
2022/01/26 13:35:49;;;;;;;;;;;4.80;77.50;;;;;;5051771;28;20029;-81
2022/01/26 13:41:01;;;;;;;32.57;16.43;;;4.70;77.40;;;;;;5045398;28;20371;-82
2022/01/26 13:44:02;;;;;;;34.87;16.77;;;4.70;77.50;;;;;;5035279;28;20029;-82
2022/01/26 13:46:49;;;;;;;33.10;15.20;;;4.70;77.50;;;;;;5052866;28;20098;-82
2022/01/26 13:54:45;;;;;;;35.53;17.53;;;4.70;77.60;;;;;;5055161;28;20079;-84
2022/01/26 13:59:47;;;;;;;30.10;15.17;;;4.70;77.60;;;;;;5057036;28;20029;-85
2022/01/26 14:02:13;;;;;;;32.63;17.87;;;4.70;77.60;;;;;;5037292;28;20355;-86
2022/01/26 14:04:39;;;;;;;29.17;14.60;;;4.60;77.70;;;;;;5033632;28;20117;-85
2022/01/26 14:07:05;;;;;;;24.47;12.30;;;4.60;77.70;;;;;;5047762;28;20032;-85
2022/01/26 14:09:31;;;;;;;;;;;4.60;77.70;;;;;;5036829;28;20021;-83
2022/01/26 14:11:59;;;;;;;33.33;13.87;;;4.60;77.80;;;;;;5035480;28;19958;-83
2022/01/26 14:14:31;;;;;;;33.77;15.70;;;4.50;77.60;;;;;;5035131;28;20104;-84
2022/01/26 14:17:00;;;;;;;26.60;11.57;;;4.50;77.80;;;;;;5035243;28;20492;-84
2022/01/26 14:19:33;;;;;;;29.67;15.93;;;4.50;77.90;;;;;;5031646;28;20079;-85
2022/01/26 14:26:59;;;;;;;;;;;4.40;78.00;;;;;;5059132;28;20440;-85
2022/01/26 14:50:57;;;;;;;35.10;14.27;;;4.30;78.10;;;;;;5065136;28;20060;-86
2022/01/26 14:55:59;;;;;;;41.30;16.80;;;4.20;78.30;;;;;;5079752;28;20029;-87
2022/01/26 15:12:18;;;;;;;50.00;20.63;;;4.00;78.60;;;;;;5060785;28;20482;-86
2022/01/26 15:29:56;;;;;;;69.37;26.17;;;3.90;78.70;;;;;;5060035;28;20043;-86
2022/01/26 15:53:08;;;;;;;;;;;3.80;79.00;;;;;;5057986;28;20522;-86
2022/01/26 15:58:25;;;;;;;41.03;18.23;;;3.80;78.90;;;;;;5057882;28;20040;-86
2022/01/26 16:06:36;;;;;;;38.77;18.93;;;3.80;79.20;;;;;;5055190;28;20090;-84
2022/01/26 16:18:44;;;;;;;50.23;22.10;;;3.80;79.10;;;;;;5054825;28;20394;-84
2022/01/26 17:11:07;;;;;;;36.70;16.83;;;3.50;79.20;;;;;;5055220;28;20113;-85
2022/01/26 18:04:05;;;;;;;48.17;20.47;;;3.60;79.80;;;;;;5073972;28;19996;-87
2022/01/26 18:33:13;;;;;;;;;;;3.50;80.30;;;;;;5059846;28;20098;-88
2022/01/26 18:49:13;;;;;;;;;;;3.80;80.00;;;;;;5059324;28;19915;-87
2022/01/26 18:52:01;;;;;;;;;;;3.80;80.00;;;;;;5038135;28;19909;-89
2022/01/26 18:54:27;;;;;;;;;;;3.80;79.90;;;;;;5061045;28;19915;-89
2022/01/26 18:57:04;;;;;;;;;;;3.80;79.90;;;;;;5044912;28;20277;-89
2022/01/26 18:59:35;;;;;;;;;;;3.80;79.90;;;;;;5042289;28;20340;-89
2022/01/26 19:02:12;;;;;;;;;;;3.80;79.80;;;;;;5043342;28;19908;-90
2022/01/26 19:04:41;;;;;;;;;;;3.80;79.70;;;;;;5041110;28;19955;-88
2022/01/26 19:07:07;;;;;;;;;;;3.80;79.40;;;;;;5041472;28;19908;-88
2022/01/26 19:09:38;;;;;;;;;;;3.70;78.80;;;;;;5041429;28;19919;-88
2022/01/26 19:12:36;;;;;;;;;;;3.70;78.50;;;;;;5041582;28;19976;-87
2022/01/26 19:15:06;;;;;;;;;;;3.70;78.40;;;;;;5040101;28;19999;-88
2022/01/26 19:18:16;;;;;;;;;;;3.70;78.10;;;;;;5040244;28;19908;-87
2022/01/26 19:23:25;;;;;;;;;;;3.60;77.90;;;;;;5058408;28;19908;-87
2022/01/26 19:26:06;;;;;;;;;;;3.70;77.60;;;;;;5040579;28;19986;-87
2022/01/26 19:29:01;;;;;;;;;;;3.70;77.70;;;;;;5035149;28;19935;-89
2022/01/26 19:51:49;;;;;;;;;;;3.50;78.10;;;;;;5037360;28;20255;-88
2022/01/26 19:54:14;;;;;;;;;;;3.50;78.20;;;;;;5036344;28;20377;-87
2022/01/26 19:56:42;;;;;;;;;;;3.50;78.20;;;;;;5036620;28;19909;-88
2022/01/26 19:59:08;;;;;;;;;;;3.50;78.00;;;;;;5035356;28;20358;-89
2022/01/26 20:01:44;;;;;;;;;;;3.60;78.00;;;;;;5036678;28;19920;-87
2022/01/26 20:04:11;;;;;;;;;;;3.60;78.00;;;;;;5035268;28;20369;-85
2022/01/26 20:06:37;;;;;;;;;;;3.60;78.00;;;;;;5039781;28;19917;-85